METAR AND TAF INFORMATION
METAR FOR SBGR
ADDS - METARS form results

(1406 UTC 22 April 2018)
Data provider http://aviationweather.gov/adds/metars/
 
METAR text: SBGR 221400Z 08007KT CAVOK 21/17 Q1021
Conditions at: SBGR (GUARULHOS (CIV/M, BR) observed 1400 UTC 22 April 2018
Temperature: 21.0°C (70°F)
Dewpoint: 17.0°C (63°F) [RH = 78%]
Pressure (altimeter): 30.15 inches Hg (1021.0 mb)
Winds: from the E (80 degrees) at 8 MPH (7 knots; 3.6 m/s)
Visibility: 6 or more miles (10+ km)
Ceiling: ceiling and visibility are OK
Clouds: unknown
Weather: no significant weather observed at this time

Forecast for: SBGR (GUARULHOS (CIV/M, BR)
Text: TAF SBGR 221022Z 2212/2318 06005KT CAVOK TX26/2218Z TN14/2309Z
Forecast period: 1200 to 1600 UTC 22 April 2018
Forecast type: FROM: standard forecast or significant change
Winds: from the ENE (60 degrees) at 6 MPH (5 knots; 2.6 m/s)
Visibility: 6 or more miles (10+ km)
Clouds: not forecast
Weather: no significant weather forecast for this period
Forecast for: SBGR (GUARULHOS (CIV/M, BR)
Text: TAF SBGR 221022Z 2212/2318 06005KT CAVOK TX26/2218Z TN14/2309Z
Forecast period: 1200 to 1600 UTC 22 April 2018
Forecast type: FROM: standard forecast or significant change
Winds: from the ENE (60 degrees) at 6 MPH (5 knots; 2.6 m/s)
Visibility: 6 or more miles (10+ km)
Clouds: not forecast
Weather: no significant weather forecast for this period
Forecast for: SBGR (GUARULHOS (CIV/M, BR)
Text: TAF SBGR 221022Z 2212/2318 06005KT CAVOK TX26/2218Z TN14/2309Z
Forecast period: 1600 to 2000 UTC 22 April 2018
Forecast type: BECOMING: Conditions expected to become as follows by 1800 UTC 22 April 2018
Winds: from the SSE (150 degrees) at 8 MPH (7 knots; 3.6 m/s)
Visibility: 6 or more miles (10+ km)
Clouds: scattered clouds at 4500 feet AGL
Weather: no significant weather forecast for this period
Forecast for: SBGR (GUARULHOS (CIV/M, BR)
Text: TAF SBGR 221022Z 2212/2318 06005KT CAVOK TX26/2218Z TN14/2309Z
Forecast period: 1600 to 2000 UTC 22 April 2018
Forecast type: BECOMING: Conditions expected to become as follows by 1800 UTC 22 April 2018
Winds: from the SSE (150 degrees) at 8 MPH (7 knots; 3.6 m/s)
Visibility: 6 or more miles (10+ km)
Clouds: scattered clouds at 4500 feet AGL
Weather: no significant weather forecast for this period
Forecast for: SBGR (GUARULHOS (CIV/M, BR)
Text: TAF SBGR 221022Z 2212/2318 06005KT CAVOK TX26/2218Z TN14/2309Z
Forecast period: 2000 to 2300 UTC 22 April 2018
Forecast type: BECOMING: Conditions expected to become as follows by 2200 UTC 22 April 2018
Winds: from the SSE (150 degrees) at 8 MPH (7 knots; 3.6 m/s)
Visibility: 6 or more miles (10+ km)
Ceiling: 1300 feet AGL
Clouds: broken clouds at 1300 feet AGL
Weather: no significant weather forecast for this period
Forecast for: SBGR (GUARULHOS (CIV/M, BR)
Text: TAF SBGR 221022Z 2212/2318 06005KT CAVOK TX26/2218Z TN14/2309Z
Forecast period: 2000 to 2300 UTC 22 April 2018
Forecast type: BECOMING: Conditions expected to become as follows by 2200 UTC 22 April 2018
Winds: from the SSE (150 degrees) at 8 MPH (7 knots; 3.6 m/s)
Visibility: 6 or more miles (10+ km)
Ceiling: 1300 feet AGL
Clouds: broken clouds at 1300 feet AGL
Weather: no significant weather forecast for this period
Forecast for: SBGR (GUARULHOS (CIV/M, BR)
Text: TAF SBGR 221022Z 2212/2318 06005KT CAVOK TX26/2218Z TN14/2309Z
Forecast period: 2300 UTC 22 April 2018 to 0600 UTC 23 April 2018
Forecast type: BECOMING: Conditions expected to become as follows by 0100 UTC 23 April 2018
Winds: from the E (90 degrees) at 2 MPH (2 knots; 1.0 m/s)
Visibility: 6 or more miles (10+ km)
Ceiling: 1300 feet AGL
Clouds: broken clouds at 1300 feet AGL
Weather: no significant weather forecast for this period
Forecast for: SBGR (GUARULHOS (CIV/M, BR)
Text: TAF SBGR 221022Z 2212/2318 06005KT CAVOK TX26/2218Z TN14/2309Z
Forecast period: 2300 UTC 22 April 2018 to 0600 UTC 23 April 2018
Forecast type: BECOMING: Conditions expected to become as follows by 0100 UTC 23 April 2018
Winds: from the E (90 degrees) at 2 MPH (2 knots; 1.0 m/s)
Visibility: 6 or more miles (10+ km)
Ceiling: 1300 feet AGL
Clouds: broken clouds at 1300 feet AGL
Weather: no significant weather forecast for this period
Forecast for: SBGR (GUARULHOS (CIV/M, BR)
Text: TAF SBGR 221022Z 2212/2318 06005KT CAVOK TX26/2218Z TN14/2309Z
Forecast period: 0600 to 1000 UTC 23 April 2018
Forecast type: BECOMING: Conditions expected to become as follows by 0800 UTC 23 April 2018
Winds: from the E (90 degrees) at 2 MPH (2 knots; 1.0 m/s)
Visibility: 3 miles (5 km)
Ceiling: 800 feet AGL
Clouds: broken clouds at 800 feet AGL
Weather: BR  (mist)
Forecast for: SBGR (GUARULHOS (CIV/M, BR)
Text: TAF SBGR 221022Z 2212/2318 06005KT CAVOK TX26/2218Z TN14/2309Z
Forecast period: 0600 to 1000 UTC 23 April 2018
Forecast type: BECOMING: Conditions expected to become as follows by 0800 UTC 23 April 2018
Winds: from the E (90 degrees) at 2 MPH (2 knots; 1.0 m/s)
Visibility: 3 miles (5 km)
Ceiling: 800 feet AGL
Clouds: broken clouds at 800 feet AGL
Weather: BR  (mist)
Forecast for: SBGR (GUARULHOS (CIV/M, BR)
Text: TAF SBGR 221022Z 2212/2318 06005KT CAVOK TX26/2218Z TN14/2309Z
Forecast period: 0800 to 1000 UTC 23 April 2018
Forecast type: PROBABLE: 30 percent likelihood of the following during this time
Visibility: 0.93 miles (1.50 km)
Ceiling: 300 feet AGL
Clouds: broken clouds at 300 feet AGL
Weather: BR  (mist)
Forecast for: SBGR (GUARULHOS (CIV/M, BR)
Text: TAF SBGR 221022Z 2212/2318 06005KT CAVOK TX26/2218Z TN14/2309Z
Forecast period: 0800 to 1000 UTC 23 April 2018
Forecast type: PROBABLE: 30 percent likelihood of the following during this time
Visibility: 0.93 miles (1.50 km)
Ceiling: 300 feet AGL
Clouds: broken clouds at 300 feet AGL
Weather: BR  (mist)
Forecast for: SBGR (GUARULHOS (CIV/M, BR)
Text: TAF SBGR 221022Z 2212/2318 06005KT CAVOK TX26/2218Z TN14/2309Z
Forecast period: 1000 to 1800 UTC 23 April 2018
Forecast type: BECOMING: Conditions expected to become as follows by 1200 UTC 23 April 2018
Winds: from the ENE (60 degrees) at 6 MPH (5 knots; 2.6 m/s)
Visibility: 6 or more miles (10+ km)
Weather: NSW  (no significant weather)
Forecast for: SBGR (GUARULHOS (CIV/M, BR)
Text: TAF SBGR 221022Z 2212/2318 06005KT CAVOK TX26/2218Z TN14/2309Z
Forecast period: 1000 to 1800 UTC 23 April 2018
Forecast type: BECOMING: Conditions expected to become as follows by 1200 UTC 23 April 2018
Winds: from the ENE (60 degrees) at 6 MPH (5 knots; 2.6 m/s)
Visibility: 6 or more miles (10+ km)
Weather: NSW  (no significant weather)

 AIRPORT MAP

 RUNWAY INFORMATION
Runway 09L Runway length 12139 ft Runway width 148 ft
Runway elevation 2445 ft Runway displaced threshold 0 ft Runway heading 74
Runway 27R Runway length 12139 ft Runway width 148 ft
Runway elevation 2440 ft Runway displaced threshold 0 ft Runway heading 254
Runway 09R Runway length 9843 ft Runway width 148 ft
Runway elevation 2450 ft Runway displaced threshold 0 ft Runway heading 74
Runway 27L Runway length 9843 ft Runway width 148 ft
Runway elevation 2445 ft Runway displaced threshold 0 ft Runway heading 254

 AIRPORT FREQUENCIES
Type APP Name SAO PAULO Frequency 119.8 MHZ
Type ATIS Name ATIS Frequency 127.75 MHZ
Type CLD Name CLNC DEL Frequency 121 MHZ
Type GND Name GND Frequency 121.7 MHZ
Type ILS: Name RWY 27L Frequency 111.1 MHZ
Type OPS Name SAO PAULO Frequency 122.5 MHZ
Type TWR Name TWR Frequency 118.4 MHZ

 AIRPORT NEAR NAVIGATION AIDS
Type VOR-DME Name Bonsucesso Frequency 116000 KHZ
Type NDB Name Perus Frequency 220 KHZ



Powered by Virtual Airlines Manager [v2.6.2]